createdAt,value
2023-04-14T00:01:04.068Z,12.39
2023-04-14T00:03:33.705Z,12.36
2023-04-14T00:06:02.096Z,12.28
2023-04-14T00:08:30.661Z,12.27
2023-04-14T00:10:59.327Z,12.25
2023-04-14T00:13:27.968Z,12.30
2023-04-14T00:15:57.020Z,12.27
2023-04-14T00:18:25.671Z,12.25
2023-04-14T00:20:57.777Z,12.21
2023-04-14T00:23:26.502Z,12.29
2023-04-14T00:25:54.617Z,12.23
2023-04-14T00:28:22.797Z,12.35
2023-04-14T00:30:51.040Z,12.39
2023-04-14T00:33:19.196Z,12.18
2023-04-14T00:35:47.629Z,12.24
2023-04-14T00:38:17.327Z,12.09
2023-04-14T00:40:45.655Z,11.88
2023-04-14T00:43:13.856Z,11.81
2023-04-14T00:45:46.480Z,11.81
2023-04-14T00:48:15.809Z,11.82
2023-04-14T00:50:44.475Z,11.90
2023-04-14T00:53:14.137Z,11.84
2023-04-14T00:55:44.362Z,11.84
2023-04-14T00:58:13.006Z,11.82
2023-04-14T01:00:41.167Z,11.80
2023-04-14T01:03:09.756Z,11.78
2023-04-14T01:05:37.996Z,11.81
2023-04-14T01:08:06.603Z,11.79
2023-04-14T01:10:42.566Z,11.80
2023-04-14T01:13:23.558Z,11.83
2023-04-14T01:15:55.668Z,11.85
2023-04-14T01:18:30.545Z,11.84
2023-04-14T01:21:04.516Z,11.69
2023-04-14T01:23:39.078Z,11.66
2023-04-14T01:26:30.389Z,11.75
2023-04-14T01:29:36.257Z,11.77
2023-04-14T01:32:10.753Z,11.80
2023-04-14T01:34:47.385Z,11.77
2023-04-14T01:37:18.277Z,11.73
2023-04-14T01:39:51.474Z,11.25
2023-04-14T01:42:24.604Z,11.75
2023-04-14T01:44:58.546Z,11.43
2023-04-14T01:47:30.984Z,11.55
2023-04-14T01:50:02.590Z,11.36
2023-04-14T01:52:32.935Z,11.45
2023-04-14T01:55:05.871Z,11.43
2023-04-14T01:57:37.395Z,11.29
2023-04-14T02:00:08.768Z,11.36
2023-04-14T02:02:41.595Z,11.32
2023-04-14T02:05:11.799Z,11.43
2023-04-14T02:07:41.724Z,11.32
2023-04-14T02:10:11.763Z,11.42
2023-04-14T02:12:43.351Z,11.35
2023-04-14T02:15:16.184Z,11.27
2023-04-14T02:17:49.961Z,11.23
2023-04-14T02:20:18.696Z,11.25
2023-04-14T02:22:47.159Z,11.23
2023-04-14T02:25:15.607Z,11.25
2023-04-14T02:27:50.303Z,10.97
2023-04-14T02:30:21.816Z,11.07
2023-04-14T02:32:58.224Z,11.05
2023-04-14T02:35:30.071Z,10.95
2023-04-14T02:38:08.427Z,11.05
2023-04-14T02:40:40.056Z,11.21
2023-04-14T02:43:13.943Z,11.12
2023-04-14T02:45:44.055Z,11.17
2023-04-14T02:48:17.066Z,11.35
2023-04-14T02:50:48.750Z,11.19
2023-04-14T02:53:21.970Z,11.38
2023-04-14T02:55:52.178Z,11.55
2023-04-14T02:58:21.563Z,11.45
2023-04-14T03:00:52.126Z,11.51
2023-04-14T03:03:22.194Z,11.54
2023-04-14T03:05:50.729Z,11.44
2023-04-14T03:08:20.608Z,11.39
2023-04-14T03:10:52.971Z,11.53
2023-04-14T03:13:23.640Z,11.53
2023-04-14T03:15:54.157Z,11.59
2023-04-14T03:18:24.374Z,11.61
2023-04-14T03:20:55.928Z,11.55
2023-04-14T03:23:27.014Z,11.61
2023-04-14T03:25:58.308Z,11.74
2023-04-14T03:28:29.488Z,11.57
2023-04-14T03:31:01.410Z,11.31
2023-04-14T03:33:33.928Z,11.08
2023-04-14T03:36:03.120Z,10.98
2023-04-14T03:38:34.567Z,11.02
2023-04-14T03:41:05.625Z,11.05
2023-04-14T03:43:36.050Z,11.03
2023-04-14T03:46:06.378Z,11.12
2023-04-14T03:48:42.989Z,11.20
2023-04-14T03:51:14.415Z,11.21
2023-04-14T03:53:44.540Z,11.05
2023-04-14T03:56:16.824Z,10.98
2023-04-14T03:58:49.557Z,10.89
2023-04-14T04:01:19.552Z,10.78
2023-04-14T04:03:50.031Z,10.82
2023-04-14T04:06:19.057Z,10.78
2023-04-14T04:08:49.190Z,10.86
2023-04-14T04:11:20.960Z,10.76
2023-04-14T04:13:50.412Z,10.71
2023-04-14T04:16:20.571Z,10.71
2023-04-14T04:18:51.608Z,10.74
2023-04-14T04:21:21.543Z,10.95
2023-04-14T04:23:54.688Z,10.72
2023-04-14T04:26:23.892Z,10.83
2023-04-14T04:28:53.720Z,10.83
2023-04-14T04:31:23.985Z,10.78
2023-04-14T04:33:54.742Z,10.79
2023-04-14T04:36:23.471Z,10.62
2023-04-14T04:38:51.987Z,10.61
2023-04-14T04:41:24.032Z,10.59
2023-04-14T04:43:52.738Z,10.67
2023-04-14T04:46:44.340Z,10.56
2023-04-14T04:49:15.781Z,10.66
2023-04-14T04:51:44.807Z,10.82
2023-04-14T04:54:13.481Z,10.74
2023-04-14T04:56:41.836Z,10.69
2023-04-14T04:59:11.359Z,10.59
2023-04-14T05:01:39.720Z,10.61
2023-04-14T05:04:08.433Z,10.56
2023-04-14T05:06:38.699Z,10.55
2023-04-14T05:09:07.582Z,10.52
2023-04-14T05:11:37.072Z,10.43
2023-04-14T05:14:05.690Z,10.44
2023-04-14T05:16:33.930Z,10.39
2023-04-14T05:19:03.275Z,10.34
2023-04-14T05:21:31.802Z,10.43
2023-04-14T05:24:01.706Z,10.45
2023-04-14T05:26:52.003Z,10.44
2023-04-14T05:29:21.003Z,10.53
2023-04-14T05:31:49.909Z,10.65
2023-04-14T05:34:18.520Z,10.76
2023-04-14T05:36:48.627Z,10.86
2023-04-14T05:39:18.450Z,10.77
2023-04-14T05:41:47.175Z,10.96
2023-04-14T05:44:16.870Z,10.59
2023-04-14T05:46:47.064Z,10.91
2023-04-14T05:49:15.264Z,11.08
2023-04-14T05:51:45.587Z,11.28
2023-04-14T05:54:13.832Z,11.29
2023-04-14T05:56:43.453Z,11.27
2023-04-14T05:59:11.811Z,11.30
2023-04-14T06:01:40.394Z,11.24
2023-04-14T06:04:09.336Z,11.21
2023-04-14T06:06:38.176Z,11.48
2023-04-14T06:09:06.369Z,11.45
2023-04-14T06:11:34.559Z,11.64
2023-04-14T06:14:05.540Z,11.61
2023-04-14T06:16:33.859Z,11.58
2023-04-14T06:19:04.686Z,11.94
2023-04-14T06:21:32.903Z,12.01
2023-04-14T06:24:01.626Z,12.07
2023-04-14T06:26:32.547Z,12.17
2023-04-14T06:29:07.701Z,11.98
2023-04-14T06:31:36.255Z,11.94
2023-04-14T06:34:04.387Z,12.29
2023-04-14T06:36:33.114Z,12.35
2023-04-14T06:39:02.532Z,12.70
2023-04-14T06:41:31.288Z,12.75
2023-04-14T06:43:59.897Z,12.72
2023-04-14T06:46:30.305Z,12.81
2023-04-14T06:48:58.534Z,12.82
2023-04-14T06:51:27.252Z,13.05
2023-04-14T06:53:55.676Z,12.91
2023-04-14T06:56:23.991Z,13.25
2023-04-14T06:58:52.420Z,13.12
2023-04-14T07:01:20.944Z,13.20
2023-04-14T07:03:50.599Z,13.28
2023-04-14T07:06:20.203Z,13.35
2023-04-14T07:08:48.388Z,13.47
2023-04-14T07:11:16.409Z,13.44
2023-04-14T07:13:44.923Z,13.57
2023-04-14T07:16:13.412Z,13.41
2023-04-14T07:18:41.732Z,13.75
2023-04-14T07:21:12.127Z,13.52
2023-04-14T07:23:40.495Z,13.36
2023-04-14T07:26:08.584Z,13.40
2023-04-14T07:28:37.376Z,13.69
2023-04-14T07:31:10.076Z,13.79
2023-04-14T07:33:38.578Z,13.94
2023-04-14T07:36:08.113Z,14.06
2023-04-14T07:38:37.894Z,14.02
2023-04-14T07:41:07.951Z,14.07
2023-04-14T07:43:36.445Z,14.25
2023-04-14T07:46:05.782Z,14.29
2023-04-14T07:48:37.213Z,14.51
2023-04-14T07:51:07.002Z,14.58
2023-04-14T07:53:43.190Z,14.46
2023-04-14T07:56:13.216Z,14.08
2023-04-14T07:58:41.348Z,14.03
2023-04-14T08:01:09.842Z,14.04
2023-04-14T08:03:38.705Z,14.08
2023-04-14T08:06:11.011Z,14.29
2023-04-14T08:08:40.992Z,14.29
2023-04-14T08:11:09.129Z,14.15
2023-04-14T08:13:38.749Z,14.03
2023-04-14T08:16:07.151Z,13.95
2023-04-14T08:18:35.679Z,13.97
2023-04-14T08:21:03.879Z,14.15
2023-04-14T08:23:32.287Z,14.52
2023-04-14T08:26:00.506Z,14.71
2023-04-14T08:28:29.609Z,14.79
2023-04-14T08:31:00.058Z,15.18
2023-04-14T08:33:31.373Z,15.31
2023-04-14T08:36:00.589Z,15.06
2023-04-14T08:38:29.594Z,15.37
2023-04-14T08:41:00.476Z,15.46
2023-04-14T08:43:28.884Z,15.36
2023-04-14T08:46:03.427Z,15.50
2023-04-14T08:48:33.039Z,15.32
2023-04-14T08:51:08.853Z,15.19
2023-04-14T08:53:45.366Z,15.25
2023-04-14T08:56:17.880Z,15.22
2023-04-14T08:58:47.350Z,14.98
2023-04-14T09:01:17.485Z,15.10
2023-04-14T09:03:46.429Z,15.42
2023-04-14T09:06:15.876Z,15.46
2023-04-14T09:08:45.030Z,15.59
2023-04-14T09:11:14.633Z,15.74
2023-04-14T09:13:45.521Z,15.78
2023-04-14T09:16:15.507Z,16.01
2023-04-14T09:18:47.358Z,16.46
2023-04-14T09:21:29.613Z,16.32
2023-04-14T09:24:07.969Z,15.77
2023-04-14T09:26:37.791Z,15.85
2023-04-14T09:29:06.323Z,16.18
2023-04-14T09:31:34.943Z,16.22
2023-04-14T09:34:05.399Z,15.96
2023-04-14T09:36:33.671Z,15.69
2023-04-14T09:39:02.620Z,16.00
2023-04-14T09:41:31.776Z,15.83
2023-04-14T09:44:10.824Z,15.79
2023-04-14T09:46:39.002Z,15.81
2023-04-14T09:49:09.054Z,15.99
2023-04-14T09:51:51.846Z,16.35
2023-04-14T09:54:25.840Z,16.34
2023-04-14T09:56:57.747Z,16.20
2023-04-14T09:59:34.426Z,16.20
2023-04-14T10:02:06.584Z,16.18
2023-04-14T10:04:36.886Z,16.17
2023-04-14T10:07:08.144Z,16.56
2023-04-14T10:09:38.638Z,16.36
2023-04-14T10:12:12.764Z,16.38
2023-04-14T10:14:41.463Z,16.33
2023-04-14T10:17:10.101Z,16.46
2023-04-14T10:19:39.919Z,16.42
2023-04-14T10:22:08.106Z,16.10
2023-04-14T10:24:37.084Z,16.09
2023-04-14T10:27:06.323Z,15.99
2023-04-14T10:29:36.846Z,16.03
2023-04-14T10:32:08.549Z,16.25
2023-04-14T10:34:41.223Z,16.51
2023-04-14T10:37:15.879Z,16.33
2023-04-14T10:39:44.221Z,16.29
2023-04-14T10:42:12.421Z,16.41
2023-04-14T10:44:40.884Z,16.95
2023-04-14T10:47:09.419Z,16.83
2023-04-14T10:49:39.593Z,16.91
2023-04-14T10:52:28.658Z,16.79
2023-04-14T10:55:01.278Z,16.55
2023-04-14T10:57:30.936Z,16.43
2023-04-14T11:00:00.172Z,16.38
2023-04-14T11:02:32.842Z,16.29
2023-04-14T11:05:04.205Z,16.18
2023-04-14T11:07:33.485Z,16.19
2023-04-14T11:10:27.364Z,16.44
2023-04-14T11:13:02.136Z,16.36
2023-04-14T11:15:50.911Z,16.40
2023-04-14T11:18:22.924Z,16.25
2023-04-14T11:20:54.025Z,16.44
2023-04-14T11:23:28.455Z,16.60
2023-04-14T11:25:58.813Z,16.61
2023-04-14T11:28:30.902Z,16.33
2023-04-14T11:31:00.152Z,16.22
2023-04-14T11:33:30.606Z,16.13
2023-04-14T11:35:59.214Z,16.14
2023-04-14T11:38:28.124Z,16.25
2023-04-14T11:40:57.868Z,16.32
2023-04-14T11:43:26.555Z,16.35
2023-04-14T11:45:54.875Z,16.23
2023-04-14T11:48:23.046Z,16.11
2023-04-14T11:50:52.219Z,15.86
2023-04-14T11:53:21.374Z,16.10
2023-04-14T11:55:51.074Z,16.33
2023-04-14T11:58:25.455Z,16.30
2023-04-14T12:00:56.448Z,16.00
2023-04-14T12:06:18.215Z,16.07
2023-04-14T12:08:50.693Z,15.81
2023-04-14T12:11:18.987Z,15.55
2023-04-14T12:13:49.118Z,15.80
2023-04-14T12:16:18.406Z,15.90
2023-04-14T12:18:46.863Z,15.74
2023-04-14T12:21:20.146Z,15.64
2023-04-14T12:23:49.983Z,16.13
2023-04-14T12:26:18.360Z,16.22
2023-04-14T12:28:47.314Z,15.99
2023-04-14T12:31:27.835Z,15.84
2023-04-14T12:34:02.159Z,15.70
2023-04-14T12:36:47.971Z,15.60
2023-04-14T12:39:16.971Z,15.89
2023-04-14T12:41:45.714Z,15.72
2023-04-14T12:44:18.584Z,15.62
2023-04-14T12:46:56.686Z,15.59
2023-04-14T12:49:36.560Z,15.21
2023-04-14T12:52:08.045Z,15.41
2023-04-14T12:54:52.383Z,15.38
2023-04-14T12:57:35.350Z,15.20
2023-04-14T13:00:10.548Z,15.29
2023-04-14T13:02:47.044Z,15.31
2023-04-14T13:05:21.984Z,15.01
2023-04-14T13:07:54.200Z,14.81
2023-04-14T13:10:22.488Z,15.12
2023-04-14T13:12:50.927Z,14.62
2023-04-14T13:16:12.931Z,14.69
2023-04-14T13:18:24.203Z,14.60
2023-04-14T13:21:04.516Z,14.22
2023-04-14T13:23:47.768Z,14.69
2023-04-14T13:26:22.413Z,14.59
2023-04-14T13:29:01.252Z,14.34
2023-04-14T13:31:42.885Z,14.85
2023-04-14T13:34:17.890Z,14.62
2023-04-14T13:37:00.282Z,14.41
2023-04-14T13:39:36.004Z,14.47
2023-04-14T13:42:15.191Z,14.31
2023-04-14T13:44:50.851Z,14.24
2023-04-14T13:47:29.300Z,14.22
2023-04-14T13:50:08.868Z,14.21
2023-04-14T13:52:42.414Z,14.25
2023-04-14T13:55:15.780Z,14.35
2023-04-14T13:57:59.735Z,13.98
2023-04-14T14:00:33.570Z,13.50
2023-04-14T14:03:13.706Z,13.76
2023-04-14T14:05:50.691Z,13.59
2023-04-14T14:08:24.690Z,13.61
2023-04-14T14:11:10.342Z,13.65
2023-04-14T14:13:50.220Z,13.34
2023-04-14T14:16:35.964Z,13.68
2023-04-14T14:19:20.853Z,13.64
2023-04-14T14:22:03.308Z,13.19
2023-04-14T14:24:37.888Z,13.13
2023-04-14T14:27:11.192Z,13.20
2023-04-14T14:29:45.060Z,13.34
2023-04-14T14:32:21.563Z,13.17
2023-04-14T14:34:57.638Z,13.09
2023-04-14T14:37:31.550Z,13.17
2023-04-14T14:40:13.195Z,12.95
2023-04-14T14:42:46.580Z,12.86
2023-04-14T14:45:18.998Z,12.86
2023-04-14T14:47:59.091Z,12.68
2023-04-14T14:50:27.428Z,12.69
2023-04-14T14:52:57.426Z,12.94
2023-04-14T14:55:25.760Z,13.06
2023-04-14T14:57:53.923Z,13.26
2023-04-14T15:00:22.545Z,13.35
2023-04-14T15:02:51.039Z,12.94
2023-04-14T15:05:19.728Z,13.06
2023-04-14T15:07:47.830Z,12.93
2023-04-14T15:10:17.751Z,12.95
2023-04-14T15:12:45.980Z,12.74
2023-04-14T15:15:14.236Z,12.94
2023-04-14T15:17:42.374Z,12.94
2023-04-14T15:20:11.900Z,12.87
2023-04-14T15:22:40.086Z,12.93
2023-04-14T15:25:10.174Z,13.12
2023-04-14T15:27:39.793Z,13.20
2023-04-14T15:30:09.182Z,13.47
2023-04-14T15:32:37.469Z,13.25
2023-04-14T15:35:06.152Z,13.28
2023-04-14T15:37:34.706Z,13.30
2023-04-14T15:40:02.946Z,13.27
2023-04-14T15:42:31.123Z,13.29
2023-04-14T15:45:00.697Z,13.32
2023-04-14T15:47:28.761Z,13.33
2023-04-14T15:50:12.997Z,13.41
2023-04-14T15:52:45.498Z,13.63
2023-04-14T15:55:14.187Z,13.47
2023-04-14T15:57:42.417Z,13.47
2023-04-14T16:00:13.399Z,13.43
2023-04-14T16:02:42.201Z,13.40
2023-04-14T16:05:10.973Z,13.32
2023-04-14T16:07:40.024Z,13.14
2023-04-14T16:10:09.068Z,13.35
2023-04-14T16:12:37.777Z,13.21
2023-04-14T16:15:08.968Z,13.25
2023-04-14T16:17:38.818Z,13.43
2023-04-14T16:20:07.741Z,13.51
2023-04-14T16:22:35.954Z,13.38
2023-04-14T16:25:04.777Z,13.37
2023-04-14T16:27:32.892Z,13.31
2023-04-14T16:30:01.160Z,13.19
2023-04-14T16:32:29.901Z,13.17
2023-04-14T16:34:59.748Z,13.11
2023-04-14T16:37:28.567Z,12.96
2023-04-14T16:39:58.046Z,13.20
2023-04-14T16:42:26.954Z,13.20
2023-04-14T16:44:56.158Z,13.19
2023-04-14T16:47:24.712Z,13.19
2023-04-14T16:49:53.044Z,13.36
2023-04-14T16:52:22.504Z,13.32
2023-04-14T16:54:50.609Z,13.16
2023-04-14T16:57:19.014Z,13.36
2023-04-14T16:59:48.201Z,13.72
2023-04-14T17:02:16.572Z,13.77
2023-04-14T17:04:45.264Z,13.88
2023-04-14T17:07:13.561Z,13.65
2023-04-14T17:09:43.227Z,13.32
2023-04-14T17:12:11.483Z,13.31
2023-04-14T17:14:39.737Z,13.31
2023-04-14T17:17:08.300Z,13.32
2023-04-14T17:19:36.464Z,13.49
2023-04-14T17:22:04.508Z,13.60
2023-04-14T17:24:32.805Z,13.39
2023-04-14T17:27:02.509Z,13.32
2023-04-14T17:29:30.779Z,13.29
2023-04-14T17:31:59.327Z,13.44
2023-04-14T17:34:29.352Z,13.10
2023-04-14T17:36:58.862Z,13.05
2023-04-14T17:39:28.530Z,13.26
2023-04-14T17:41:58.095Z,13.69
2023-04-14T17:44:33.419Z,13.15
2023-04-14T17:47:03.271Z,13.13
2023-04-14T17:49:32.542Z,13.06
2023-04-14T17:52:01.423Z,12.96
2023-04-14T17:54:30.620Z,13.05
2023-04-14T17:56:58.661Z,13.37
2023-04-14T17:59:28.429Z,13.43
2023-04-14T18:01:56.665Z,13.43
2023-04-14T18:04:25.621Z,13.26
2023-04-14T18:06:56.749Z,13.31
2023-04-14T18:09:24.987Z,13.11
2023-04-14T18:11:53.302Z,13.02
2023-04-14T18:14:21.694Z,12.93
2023-04-14T18:16:51.478Z,13.09
2023-04-14T18:19:19.663Z,13.05
2023-04-14T18:21:48.400Z,12.95
2023-04-14T18:26:47.564Z,13.10
2023-04-14T18:29:15.864Z,13.06
2023-04-14T18:31:43.868Z,13.04
2023-04-14T18:34:14.036Z,13.13
2023-04-14T18:36:42.632Z,12.84
2023-04-14T18:39:10.724Z,13.14
2023-04-14T18:41:39.446Z,13.13
2023-04-14T18:44:07.748Z,12.98
2023-04-14T18:46:37.806Z,12.93
2023-04-14T18:49:06.110Z,12.91
2023-04-14T18:51:35.704Z,12.91
2023-04-14T18:54:04.019Z,12.98
2023-04-14T18:56:32.637Z,12.80
2023-04-14T18:59:01.000Z,12.71
2023-04-14T19:01:29.783Z,12.81
2023-04-14T19:03:58.220Z,12.74
2023-04-14T19:06:26.717Z,13.09
2023-04-14T19:08:56.843Z,13.25
2023-04-14T19:11:25.480Z,13.23
2023-04-14T19:13:54.272Z,13.24
2023-04-14T19:16:22.754Z,12.98
2023-04-14T19:18:50.864Z,12.79
2023-04-14T19:21:19.117Z,12.76
2023-04-14T19:23:48.686Z,12.86
2023-04-14T19:26:19.509Z,13.00
2023-04-14T19:28:47.782Z,12.80
2023-04-14T19:31:17.403Z,12.92
2023-04-14T19:33:45.768Z,13.18
2023-04-14T19:36:15.111Z,12.90
2023-04-14T19:38:43.423Z,12.76
2023-04-14T19:41:12.147Z,12.87
2023-04-14T19:43:41.789Z,13.26
2023-04-14T19:46:12.794Z,13.27
2023-04-14T19:48:41.011Z,12.99
2023-04-14T19:51:09.384Z,12.98
2023-04-14T19:53:37.683Z,13.04
2023-04-14T19:56:07.360Z,13.21
2023-04-14T19:58:36.560Z,13.33
2023-04-14T20:01:06.225Z,13.36
2023-04-14T20:03:34.800Z,13.31
2023-04-14T20:06:03.336Z,13.24
2023-04-14T20:08:32.346Z,13.00
2023-04-14T20:11:00.758Z,12.80
2023-04-14T20:13:31.398Z,12.87
2023-04-14T20:16:00.273Z,13.23
2023-04-14T20:18:30.075Z,13.02
2023-04-14T20:20:59.081Z,12.89
2023-04-14T20:23:27.994Z,12.90
2023-04-14T20:26:02.522Z,12.79
2023-04-14T20:28:31.531Z,12.72
2023-04-14T20:30:59.718Z,12.83
2023-04-14T20:33:29.709Z,12.84
2023-04-14T20:36:00.069Z,12.90
2023-04-14T20:38:28.346Z,12.91
2023-04-14T20:40:56.671Z,13.08
2023-04-14T20:43:32.632Z,13.02
2023-04-14T20:46:01.507Z,12.92
2023-04-14T20:48:32.303Z,12.76
2023-04-14T20:51:01.846Z,12.92
2023-04-14T20:53:30.206Z,13.03
2023-04-14T20:55:58.321Z,12.92
2023-04-14T20:58:26.574Z,13.19
2023-04-14T21:00:56.758Z,12.93
2023-04-14T21:03:25.455Z,13.19
2023-04-14T21:05:55.471Z,13.26
2023-04-14T21:08:24.798Z,13.39
2023-04-14T21:11:15.869Z,13.38
2023-04-14T21:15:39.724Z,13.24
2023-04-14T21:16:30.047Z,13.40
2023-04-14T21:18:58.452Z,13.14
2023-04-14T21:21:28.048Z,13.01
2023-04-14T21:23:56.212Z,13.36
2023-04-14T21:26:24.636Z,13.11
2023-04-14T21:28:53.053Z,13.11
2023-04-14T21:31:21.259Z,13.38
2023-04-14T21:33:49.380Z,13.24
2023-04-14T21:36:17.457Z,13.22
2023-04-14T21:38:47.473Z,13.17
2023-04-14T21:41:15.996Z,13.21
2023-04-14T21:43:44.114Z,13.11
2023-04-14T21:46:12.313Z,13.13
2023-04-14T21:48:40.562Z,13.21
2023-04-14T21:51:09.091Z,13.42
2023-04-14T21:53:37.543Z,13.38
2023-04-14T21:56:10.019Z,13.26
2023-04-14T21:58:39.560Z,13.30
2023-04-14T22:01:09.644Z,13.46
2023-04-14T22:03:40.615Z,13.48
2023-04-14T22:06:10.096Z,13.50
2023-04-14T22:08:40.401Z,13.42
2023-04-14T22:11:10.376Z,13.32
2023-04-14T22:13:38.602Z,13.21
2023-04-14T22:16:07.568Z,13.13
2023-04-14T22:18:37.272Z,13.40
2023-04-14T22:21:05.773Z,13.28
2023-04-14T22:23:34.205Z,13.21
2023-04-14T22:26:02.703Z,13.13
2023-04-14T22:28:32.165Z,13.13
2023-04-14T22:31:00.354Z,12.95
2023-04-14T22:33:28.767Z,13.09
2023-04-14T22:35:56.952Z,13.28
2023-04-14T22:38:25.238Z,13.42
2023-04-14T22:40:53.421Z,13.49
2023-04-14T22:43:21.634Z,13.49
2023-04-14T22:45:51.247Z,13.41
2023-04-14T22:48:19.695Z,13.52
2023-04-14T22:50:47.749Z,13.61
2023-04-14T22:53:16.481Z,13.61
2023-04-14T22:55:45.389Z,13.35
2023-04-14T22:58:17.080Z,13.46
2023-04-14T23:00:45.677Z,13.38
2023-04-14T23:03:15.650Z,13.24
2023-04-14T23:05:44.834Z,13.35
2023-04-14T23:08:13.121Z,13.39
2023-04-14T23:10:41.706Z,13.44
2023-04-14T23:13:09.929Z,13.52
2023-04-14T23:15:38.195Z,13.45
2023-04-14T23:18:06.719Z,13.45
2023-04-14T23:20:37.037Z,13.23
2023-04-14T23:23:05.896Z,13.25
2023-04-14T23:25:34.137Z,13.31
2023-04-14T23:28:02.430Z,13.35
2023-04-14T23:30:30.780Z,13.54
2023-04-14T23:32:58.965Z,13.51
2023-04-14T23:35:27.075Z,13.20
2023-04-14T23:38:02.385Z,13.31
2023-04-14T23:40:30.791Z,13.30
2023-04-14T23:42:59.300Z,13.28
2023-04-14T23:45:28.049Z,13.44
2023-04-14T23:47:56.721Z,13.52
2023-04-14T23:51:00.510Z,13.54
2023-04-14T23:53:15.747Z,13.41
2023-04-14T23:55:44.794Z,13.39
2023-04-14T23:58:13.131Z,13.37
